createdAt,value
2019-05-23T00:00:46.437Z,12.30
2019-05-23T00:03:17.577Z,12.30
2019-05-23T00:05:49.039Z,12.20
2019-05-23T00:08:20.829Z,12.20
2019-05-23T00:11:12.215Z,12.10
2019-05-23T00:13:52.610Z,12.10
2019-05-23T00:16:23.749Z,12.00
2019-05-23T00:18:53.727Z,12.00
2019-05-23T00:21:24.233Z,12.00
2019-05-23T00:23:54.883Z,11.90
2019-05-23T00:26:26.242Z,11.80
2019-05-23T00:29:09.665Z,11.80
2019-05-23T00:31:37.763Z,11.70
2019-05-23T00:34:09.669Z,11.70
2019-05-23T00:36:40.132Z,11.60
2019-05-23T00:39:11.907Z,11.60
2019-05-23T00:41:42.024Z,11.50
2019-05-23T00:44:11.897Z,11.50
2019-05-23T00:46:41.634Z,11.50
2019-05-23T00:49:14.228Z,11.40
2019-05-23T00:51:46.589Z,11.40
2019-05-23T00:54:19.102Z,11.30
2019-05-23T00:56:50.583Z,11.30
2019-05-23T00:59:27.000Z,11.30
2019-05-23T01:01:53.891Z,11.20
2019-05-23T01:04:24.659Z,11.20
2019-05-23T01:06:56.305Z,11.20
2019-05-23T01:09:27.463Z,11.20
2019-05-23T01:11:57.079Z,11.10
2019-05-23T01:14:27.384Z,11.10
2019-05-23T01:16:57.417Z,11.10
2019-05-23T01:19:27.405Z,11.10
2019-05-23T01:21:59.402Z,11.00
2019-05-23T01:24:43.155Z,11.00
2019-05-23T01:27:14.238Z,11.00
2019-05-23T01:29:49.767Z,11.00
2019-05-23T01:32:27.942Z,10.90
2019-05-23T01:34:57.852Z,10.90
2019-05-23T01:37:27.453Z,10.90
2019-05-23T01:39:57.362Z,10.80
2019-05-23T01:42:28.365Z,10.80
2019-05-23T01:45:00.025Z,10.80
2019-05-23T01:47:29.901Z,10.80
2019-05-23T01:50:00.078Z,10.80
2019-05-23T01:52:30.445Z,10.70
2019-05-23T01:55:00.827Z,10.70
2019-05-23T01:57:30.387Z,10.70
2019-05-23T02:00:10.259Z,10.70
2019-05-23T02:02:32.779Z,10.60
2019-05-23T02:05:02.678Z,10.60
2019-05-23T02:07:32.436Z,10.60
2019-05-23T02:10:02.370Z,10.60
2019-05-23T02:12:33.587Z,10.50
2019-05-23T02:15:04.019Z,10.50
2019-05-23T02:17:35.003Z,10.50
2019-05-23T02:20:07.055Z,10.50
2019-05-23T02:22:36.937Z,10.50
2019-05-23T02:25:12.701Z,10.40
2019-05-23T02:27:43.011Z,10.40
2019-05-23T02:30:33.015Z,10.40
2019-05-23T02:32:50.328Z,10.40
2019-05-23T02:35:20.237Z,10.40
2019-05-23T02:38:12.530Z,10.30
2019-05-23T02:40:53.534Z,10.30
2019-05-23T02:43:25.320Z,10.30
2019-05-23T02:45:58.214Z,10.30
2019-05-23T02:48:43.381Z,10.30
2019-05-23T02:51:26.235Z,10.30
2019-05-23T02:53:57.876Z,10.30
2019-05-23T02:56:31.959Z,10.20
2019-05-23T02:59:18.902Z,10.20
2019-05-23T03:02:33.783Z,10.30
2019-05-23T03:05:07.332Z,10.30
2019-05-23T03:07:37.447Z,10.20
2019-05-23T03:10:09.702Z,10.20
2019-05-23T03:12:41.126Z,10.20
2019-05-23T03:15:13.407Z,10.20
2019-05-23T03:17:47.229Z,10.10
2019-05-23T03:20:17.199Z,10.10
2019-05-23T03:23:11.710Z,10.10
2019-05-23T03:25:45.772Z,10.10
2019-05-23T03:28:18.739Z,10.00
2019-05-23T03:31:25.051Z,10.00
2019-05-23T03:33:28.244Z,10.00
2019-05-23T03:36:00.004Z,10.00
2019-05-23T03:38:29.543Z,10.00
2019-05-23T03:40:59.599Z,10.00
2019-05-23T03:43:29.131Z,10.00
2019-05-23T03:46:07.437Z,10.00
2019-05-23T03:48:38.651Z,10.00
2019-05-23T03:51:10.306Z,10.00
2019-05-23T03:53:42.569Z,10.00
2019-05-23T03:56:12.157Z,10.10
2019-05-23T03:58:42.389Z,10.10
2019-05-23T04:01:13.344Z,10.10
2019-05-23T04:03:45.407Z,10.10
2019-05-23T04:06:15.586Z,10.20
2019-05-23T04:08:53.069Z,10.20
2019-05-23T04:11:23.155Z,10.30
2019-05-23T04:13:52.724Z,10.30
2019-05-23T04:16:22.855Z,10.30
2019-05-23T04:18:52.575Z,10.30
2019-05-23T04:21:25.455Z,10.30
2019-05-23T04:23:54.906Z,10.40
2019-05-23T04:26:24.590Z,10.40
2019-05-23T04:28:54.350Z,10.40
2019-05-23T04:31:23.890Z,10.50
2019-05-23T04:33:53.602Z,10.50
2019-05-23T04:36:23.626Z,10.50
2019-05-23T04:38:53.238Z,10.50
2019-05-23T04:41:22.728Z,10.60
2019-05-23T04:43:52.244Z,10.70
2019-05-23T04:46:22.073Z,10.70
2019-05-23T04:48:53.617Z,10.80
2019-05-23T04:51:23.993Z,10.80
2019-05-23T04:53:54.868Z,11.00
2019-05-23T04:56:25.338Z,11.00
2019-05-23T04:58:55.014Z,11.10
2019-05-23T05:01:25.626Z,11.20
2019-05-23T05:03:55.874Z,11.40
2019-05-23T05:06:26.074Z,11.50
2019-05-23T05:08:56.987Z,11.70
2019-05-23T05:11:30.477Z,11.80
2019-05-23T05:13:58.599Z,12.00
2019-05-23T05:16:28.227Z,12.20
2019-05-23T05:18:58.136Z,12.40
2019-05-23T05:21:27.767Z,12.70
2019-05-23T05:23:57.662Z,12.90
2019-05-23T05:26:27.706Z,13.10
2019-05-23T05:28:57.753Z,13.40
2019-05-23T05:31:27.555Z,13.60
2019-05-23T05:33:57.459Z,13.80
2019-05-23T05:36:27.197Z,14.00
2019-05-23T05:38:57.833Z,14.20
2019-05-23T05:41:28.206Z,14.40
2019-05-23T05:43:57.912Z,14.60
2019-05-23T05:46:27.487Z,14.80
2019-05-23T05:48:58.948Z,14.90
2019-05-23T05:51:28.800Z,15.10
2019-05-23T05:53:59.070Z,15.20
2019-05-23T05:56:28.580Z,15.30
2019-05-23T05:58:59.314Z,15.50
2019-05-23T06:01:34.140Z,15.60
2019-05-23T06:04:01.745Z,15.80
2019-05-23T06:06:35.765Z,15.90
2019-05-23T06:09:09.644Z,16.20
2019-05-23T06:11:39.757Z,16.40
2019-05-23T06:14:09.451Z,16.50
2019-05-23T06:16:39.717Z,16.70
2019-05-23T06:19:09.616Z,16.80
2019-05-23T06:21:40.481Z,17.00
2019-05-23T06:24:10.251Z,17.20
2019-05-23T06:26:43.317Z,17.30
2019-05-23T06:29:13.039Z,17.50
2019-05-23T06:31:44.363Z,17.70
2019-05-23T06:34:14.167Z,17.80
2019-05-23T06:36:43.784Z,18.00
2019-05-23T06:39:13.845Z,18.10
2019-05-23T06:41:43.793Z,18.30
2019-05-23T06:44:13.962Z,18.40
2019-05-23T06:46:44.106Z,18.60
2019-05-23T06:49:13.726Z,18.70
2019-05-23T06:51:43.301Z,18.90
2019-05-23T06:54:12.859Z,19.10
2019-05-23T06:56:42.394Z,19.30
2019-05-23T06:59:12.313Z,19.60
2019-05-23T07:01:41.934Z,19.80
2019-05-23T07:04:11.528Z,20.00
2019-05-23T07:06:41.275Z,20.20
2019-05-23T07:09:15.391Z,20.40
2019-05-23T07:11:45.511Z,20.60
2019-05-23T07:14:15.396Z,20.80
2019-05-23T07:16:45.055Z,20.90
2019-05-23T07:19:15.265Z,21.00
2019-05-23T07:21:45.088Z,21.30
2019-05-23T07:24:14.585Z,21.40
2019-05-23T07:26:45.409Z,21.50
2019-05-23T07:29:14.987Z,21.70
2019-05-23T07:31:44.768Z,21.90
2019-05-23T07:34:14.747Z,22.00
2019-05-23T07:36:44.446Z,22.20
2019-05-23T07:39:14.369Z,22.30
2019-05-23T07:41:43.967Z,22.50
2019-05-23T07:44:14.095Z,22.60
2019-05-23T07:46:43.670Z,22.80
2019-05-23T07:49:13.131Z,23.00
2019-05-23T07:51:42.668Z,23.20
2019-05-23T07:54:14.577Z,23.40
2019-05-23T07:56:45.165Z,23.50
2019-05-23T07:59:14.627Z,23.70
2019-05-23T08:01:47.337Z,23.80
2019-05-23T08:04:22.238Z,24.00
2019-05-23T08:06:49.192Z,24.10
2019-05-23T08:09:19.159Z,24.20
2019-05-23T08:11:48.710Z,24.30
2019-05-23T08:14:20.898Z,24.50
2019-05-23T08:16:51.530Z,24.50
2019-05-23T08:19:21.365Z,24.60
2019-05-23T08:21:51.255Z,24.60
2019-05-23T08:24:20.783Z,24.70
2019-05-23T08:26:51.180Z,24.80
2019-05-23T08:29:28.211Z,25.00
2019-05-23T08:31:52.514Z,25.00
2019-05-23T08:34:40.005Z,25.10
2019-05-23T08:36:53.247Z,25.30
2019-05-23T08:39:25.299Z,25.30
2019-05-23T08:41:54.940Z,25.40
2019-05-23T08:44:24.942Z,25.50
2019-05-23T08:46:54.658Z,25.50
2019-05-23T08:49:24.360Z,25.60
2019-05-23T08:51:53.931Z,25.50
2019-05-23T08:54:23.357Z,25.70
2019-05-23T08:56:52.968Z,25.70
2019-05-23T08:59:23.418Z,25.90
2019-05-23T09:01:57.671Z,26.00
2019-05-23T09:04:27.697Z,26.10
2019-05-23T09:06:57.249Z,26.20
2019-05-23T09:09:30.320Z,26.20
2019-05-23T09:11:58.878Z,26.30
2019-05-23T09:14:29.234Z,26.30
2019-05-23T09:16:58.992Z,26.40
2019-05-23T09:19:28.800Z,26.60
2019-05-23T09:21:58.438Z,26.70
2019-05-23T09:24:27.976Z,26.70
2019-05-23T09:26:57.954Z,26.90
2019-05-23T09:29:27.883Z,27.00
2019-05-23T09:31:57.818Z,27.10
2019-05-23T09:34:27.327Z,27.20
2019-05-23T09:37:00.175Z,27.20
2019-05-23T09:39:28.571Z,27.40
2019-05-23T09:41:58.461Z,27.40
2019-05-23T09:44:27.943Z,27.50
2019-05-23T09:46:57.481Z,27.60
2019-05-23T09:49:27.097Z,27.70
2019-05-23T09:52:00.985Z,27.70
2019-05-23T09:54:28.254Z,27.70
2019-05-23T09:56:58.229Z,27.60
2019-05-23T09:59:27.829Z,27.50
2019-05-23T10:01:58.284Z,27.60
2019-05-23T10:04:27.804Z,27.60
2019-05-23T10:06:57.422Z,27.60
2019-05-23T10:09:27.165Z,27.60
2019-05-23T10:11:56.637Z,27.60
2019-05-23T10:14:27.785Z,27.50
2019-05-23T10:16:57.254Z,27.30
2019-05-23T10:19:26.876Z,27.40
2019-05-23T10:21:56.392Z,27.50
2019-05-23T10:24:25.992Z,27.60
2019-05-23T10:26:55.553Z,27.70
2019-05-23T10:29:25.044Z,27.90
2019-05-23T10:31:54.709Z,27.90
2019-05-23T10:34:24.161Z,28.00
2019-05-23T10:36:53.693Z,28.10
2019-05-23T10:39:23.278Z,28.10
2019-05-23T10:41:52.931Z,28.00
2019-05-23T10:44:22.454Z,27.90
2019-05-23T10:46:51.920Z,27.30
2019-05-23T10:49:21.416Z,27.20
2019-05-23T10:51:51.027Z,27.00
2019-05-23T10:54:20.649Z,26.90
2019-05-23T10:56:50.228Z,26.70
2019-05-23T10:59:19.863Z,26.60
2019-05-23T11:01:50.676Z,26.40
2019-05-23T11:04:20.405Z,26.30
2019-05-23T11:06:50.163Z,26.20
2019-05-23T11:09:36.169Z,26.20
2019-05-23T11:11:51.622Z,26.20
2019-05-23T11:14:21.174Z,26.20
2019-05-23T11:16:50.707Z,26.20
2019-05-23T11:19:20.156Z,26.30
2019-05-23T11:21:49.758Z,26.40
2019-05-23T11:24:20.272Z,26.70
2019-05-23T11:26:50.107Z,26.90
2019-05-23T11:29:20.115Z,27.30
2019-05-23T11:31:49.824Z,27.60
2019-05-23T11:34:20.292Z,27.80
2019-05-23T11:36:49.824Z,28.00
2019-05-23T11:39:21.100Z,28.10
2019-05-23T11:41:50.525Z,28.10
2019-05-23T11:44:20.011Z,28.00
2019-05-23T11:46:49.569Z,27.90
2019-05-23T11:49:19.203Z,27.70
2019-05-23T11:51:48.817Z,27.60
2019-05-23T11:54:18.800Z,27.50
2019-05-23T11:56:48.886Z,27.30
2019-05-23T11:59:18.589Z,27.50
2019-05-23T12:01:49.734Z,27.50
2019-05-23T12:04:20.782Z,27.50
2019-05-23T12:06:56.414Z,27.50
2019-05-23T12:09:26.370Z,27.40
2019-05-23T12:11:55.779Z,27.50
2019-05-23T12:14:25.301Z,27.60
2019-05-23T12:16:56.410Z,27.70
2019-05-23T12:19:26.077Z,27.90
2019-05-23T12:21:55.817Z,28.10
2019-05-23T12:24:25.323Z,28.20
2019-05-23T12:26:54.917Z,28.30
2019-05-23T12:29:24.621Z,28.30
2019-05-23T12:31:54.478Z,28.20
2019-05-23T12:34:23.960Z,28.00
2019-05-23T12:37:14.228Z,27.90
2019-05-23T12:39:24.959Z,27.70
2019-05-23T12:41:54.444Z,27.70
2019-05-23T12:44:24.154Z,27.60
2019-05-23T12:46:53.728Z,27.60
2019-05-23T12:49:31.158Z,27.60
2019-05-23T12:52:01.192Z,27.60
2019-05-23T12:54:32.698Z,27.50
2019-05-23T12:57:02.582Z,27.40
2019-05-23T12:59:32.143Z,27.50
2019-05-23T13:02:02.030Z,27.60
2019-05-23T13:04:31.647Z,27.80
2019-05-23T13:07:01.215Z,27.90
2019-05-23T13:09:30.728Z,28.20
2019-05-23T13:12:00.272Z,28.40
2019-05-23T13:14:29.983Z,28.60
2019-05-23T13:17:00.985Z,28.70
2019-05-23T13:19:31.076Z,28.70
2019-05-23T13:22:00.683Z,28.60
2019-05-23T13:24:50.616Z,28.60
2019-05-23T13:27:02.402Z,28.50
2019-05-23T13:29:32.272Z,28.40
2019-05-23T13:32:01.782Z,28.40
2019-05-23T13:34:31.258Z,28.40
2019-05-23T13:37:00.700Z,28.40
2019-05-23T13:39:30.229Z,28.40
2019-05-23T13:42:00.086Z,28.50
2019-05-23T13:44:35.048Z,28.40
2019-05-23T13:47:00.683Z,28.40
2019-05-23T13:49:30.347Z,28.40
2019-05-23T13:51:59.781Z,28.50
2019-05-23T13:54:29.649Z,28.40
2019-05-23T13:56:59.554Z,28.40
2019-05-23T13:59:28.966Z,28.50
2019-05-23T14:01:58.783Z,28.60
2019-05-23T14:04:28.450Z,28.70
2019-05-23T14:06:58.036Z,28.70
2019-05-23T14:09:28.218Z,28.80
2019-05-23T14:12:20.228Z,28.90
2019-05-23T14:14:28.973Z,28.90
2019-05-23T14:17:00.056Z,28.90
2019-05-23T14:19:29.829Z,28.90
2019-05-23T14:22:00.000Z,28.80
2019-05-23T14:24:29.617Z,28.80
2019-05-23T14:27:03.407Z,28.80
2019-05-23T14:29:34.533Z,28.80
2019-05-23T14:32:05.669Z,28.80
2019-05-23T14:34:35.279Z,28.70
2019-05-23T14:37:10.044Z,28.60
2019-05-23T14:39:39.697Z,28.50
2019-05-23T14:42:10.967Z,28.40
2019-05-23T14:44:40.619Z,28.50
2019-05-23T14:47:20.792Z,28.50
2019-05-23T14:50:08.471Z,28.50
2019-05-23T14:52:42.126Z,28.70
2019-05-23T14:55:13.200Z,28.80
2019-05-23T14:57:42.779Z,28.90
2019-05-23T15:00:13.552Z,29.00
2019-05-23T15:02:43.447Z,29.10
2019-05-23T15:05:13.642Z,29.20
2019-05-23T15:07:43.192Z,29.20
2019-05-23T15:10:12.879Z,29.20
2019-05-23T15:12:42.328Z,29.20
2019-05-23T15:15:13.179Z,29.00
2019-05-23T15:17:42.666Z,29.00
2019-05-23T15:20:12.684Z,28.90
2019-05-23T15:22:42.224Z,28.80
2019-05-23T15:25:12.513Z,28.80
2019-05-23T15:27:42.046Z,28.70
2019-05-23T15:30:12.309Z,28.70
2019-05-23T15:32:41.936Z,28.50
2019-05-23T15:35:12.019Z,28.30
2019-05-23T15:37:41.661Z,28.20
2019-05-23T15:40:11.350Z,28.00
2019-05-23T15:42:40.904Z,27.80
2019-05-23T15:45:11.018Z,27.60
2019-05-23T15:47:40.565Z,27.40
2019-05-23T15:50:12.725Z,27.20
2019-05-23T15:52:49.881Z,26.90
2019-05-23T15:55:27.200Z,26.80
2019-05-23T15:57:58.364Z,26.60
2019-05-23T16:00:38.575Z,26.50
2019-05-23T16:03:16.205Z,26.40
2019-05-23T16:05:46.035Z,26.20
2019-05-23T16:08:15.618Z,26.10
2019-05-23T16:10:45.914Z,26.10
2019-05-23T16:13:15.672Z,26.00
2019-05-23T16:15:45.582Z,26.10
2019-05-23T16:18:15.244Z,26.10
2019-05-23T16:20:44.939Z,26.00
2019-05-23T16:23:14.370Z,26.00
2019-05-23T16:25:43.840Z,26.00
2019-05-23T16:28:13.395Z,25.90
2019-05-23T16:30:42.861Z,25.80
2019-05-23T16:33:13.978Z,25.90
2019-05-23T16:35:43.738Z,25.90
2019-05-23T16:38:13.257Z,25.90
2019-05-23T16:40:42.768Z,25.90
2019-05-23T16:43:12.198Z,25.90
2019-05-23T16:45:42.006Z,25.90
2019-05-23T16:48:11.528Z,25.90
2019-05-23T16:50:41.011Z,25.90
2019-05-23T16:53:10.585Z,25.90
2019-05-23T16:55:47.365Z,25.90
2019-05-23T16:58:30.785Z,25.70
2019-05-23T17:01:24.188Z,25.60
2019-05-23T17:03:51.140Z,25.50
2019-05-23T17:06:34.297Z,25.30
2019-05-23T17:09:06.362Z,25.20
2019-05-23T17:11:52.590Z,25.10
2019-05-23T17:14:23.711Z,25.00
2019-05-23T17:16:54.836Z,24.90
2019-05-23T17:19:37.838Z,24.80
2019-05-23T17:22:09.136Z,24.70
2019-05-23T17:24:40.388Z,24.60
2019-05-23T17:27:11.614Z,24.60
2019-05-23T17:29:45.563Z,24.50
2019-05-23T17:32:20.080Z,24.50
2019-05-23T17:34:49.679Z,24.50
2019-05-23T17:37:20.524Z,24.40
2019-05-23T17:39:53.246Z,24.40
2019-05-23T17:42:21.480Z,24.40
2019-05-23T17:44:50.938Z,24.40
2019-05-23T17:47:20.511Z,24.40
2019-05-23T17:49:50.194Z,24.40
2019-05-23T17:52:20.190Z,24.40
2019-05-23T17:54:49.650Z,24.40
2019-05-23T17:57:19.634Z,24.40
2019-05-23T17:59:49.274Z,24.40
2019-05-23T18:02:19.223Z,24.30
2019-05-23T18:04:49.038Z,24.30
2019-05-23T18:07:18.527Z,24.20
2019-05-23T18:09:48.626Z,24.20
2019-05-23T18:12:18.196Z,24.10
2019-05-23T18:14:48.542Z,24.00
2019-05-23T18:17:18.416Z,23.90
2019-05-23T18:19:47.939Z,23.80
2019-05-23T18:22:19.718Z,23.80
2019-05-23T18:24:49.190Z,23.60
2019-05-23T18:27:19.179Z,23.60
2019-05-23T18:29:48.640Z,23.50
2019-05-23T18:32:19.706Z,23.40
2019-05-23T18:34:49.329Z,23.30
2019-05-23T18:37:19.743Z,23.30
2019-05-23T18:39:49.235Z,23.20
2019-05-23T18:42:20.485Z,23.10
2019-05-23T18:44:50.687Z,23.00
2019-05-23T18:47:21.850Z,22.90
2019-05-23T18:49:51.324Z,22.90
2019-05-23T18:52:21.531Z,22.80
2019-05-23T18:54:51.056Z,22.70
2019-05-23T18:57:21.093Z,22.70
2019-05-23T18:59:50.996Z,22.60
2019-05-23T19:02:21.109Z,22.50
2019-05-23T19:04:51.481Z,22.50
2019-05-23T19:07:21.609Z,22.40
2019-05-23T19:09:51.255Z,22.40
2019-05-23T19:12:20.792Z,22.30
2019-05-23T19:14:50.380Z,22.30
2019-05-23T19:17:20.950Z,22.20
2019-05-23T19:19:50.551Z,22.10
2019-05-23T19:22:20.041Z,22.00
2019-05-23T19:24:49.740Z,21.90
2019-05-23T19:27:19.915Z,21.80
2019-05-23T19:29:50.541Z,21.70
2019-05-23T19:32:20.237Z,21.60
2019-05-23T19:34:49.932Z,21.50
2019-05-23T19:37:19.454Z,21.40
2019-05-23T19:39:49.145Z,21.20
2019-05-23T19:42:20.615Z,21.10
2019-05-23T19:44:50.274Z,21.00
2019-05-23T19:47:19.835Z,20.90
2019-05-23T19:49:49.375Z,20.80
2019-05-23T19:52:18.865Z,20.70
2019-05-23T19:54:49.020Z,20.50
2019-05-23T19:57:19.290Z,20.40
2019-05-23T19:59:48.838Z,20.30
2019-05-23T20:02:26.707Z,20.20
2019-05-23T20:05:09.466Z,20.10
2019-05-23T20:07:39.556Z,20.00
2019-05-23T20:10:10.890Z,19.90
2019-05-23T20:12:40.959Z,19.70
2019-05-23T20:15:10.854Z,19.60
2019-05-23T20:17:45.966Z,19.60
2019-05-23T20:20:15.576Z,19.50
2019-05-23T20:22:45.145Z,19.40
2019-05-23T20:25:15.540Z,19.30
2019-05-23T20:27:45.226Z,19.20
2019-05-23T20:30:31.295Z,19.10
2019-05-23T20:33:01.302Z,19.00
2019-05-23T20:35:30.845Z,18.90
2019-05-23T20:38:00.314Z,18.90
2019-05-23T20:40:30.035Z,18.80
2019-05-23T20:43:02.444Z,18.70
2019-05-23T20:45:30.555Z,18.70
2019-05-23T20:48:00.092Z,18.60
2019-05-23T20:50:29.715Z,18.50
2019-05-23T20:52:59.221Z,18.40
2019-05-23T20:55:28.669Z,18.40
2019-05-23T20:57:58.462Z,18.40
2019-05-23T21:00:35.337Z,18.30
2019-05-23T21:03:06.833Z,18.20
2019-05-23T21:05:36.533Z,18.10
2019-05-23T21:08:06.037Z,18.10
2019-05-23T21:10:43.044Z,18.00
2019-05-23T21:13:12.810Z,17.90
2019-05-23T21:15:42.442Z,17.80
2019-05-23T21:18:12.567Z,17.80
2019-05-23T21:20:42.068Z,17.70
2019-05-23T21:23:11.748Z,17.60
2019-05-23T21:25:43.006Z,17.60
2019-05-23T21:28:12.529Z,17.60
2019-05-23T21:30:42.005Z,17.50
2019-05-23T21:33:11.586Z,17.50
2019-05-23T21:35:43.166Z,17.40
2019-05-23T21:38:12.919Z,17.40
2019-05-23T21:40:44.958Z,17.30
2019-05-23T21:43:14.748Z,17.30
2019-05-23T21:45:44.362Z,17.20
2019-05-23T21:48:13.959Z,17.20
2019-05-23T21:50:43.553Z,17.10
2019-05-23T21:53:13.138Z,17.10
2019-05-23T21:55:43.758Z,17.10
2019-05-23T21:58:14.656Z,17.00
2019-05-23T22:01:08.086Z,17.00
2019-05-23T22:03:59.564Z,16.90
2019-05-23T22:06:49.156Z,16.90
2019-05-23T22:09:18.645Z,16.80
2019-05-23T22:11:50.678Z,16.80
2019-05-23T22:14:20.140Z,16.70
2019-05-23T22:16:50.166Z,16.70
2019-05-23T22:19:21.436Z,16.70
2019-05-23T22:21:50.989Z,16.60
2019-05-23T22:24:21.192Z,16.60
2019-05-23T22:26:50.894Z,16.60
2019-05-23T22:29:20.631Z,16.50
2019-05-23T22:31:50.232Z,16.50
2019-05-23T22:34:24.842Z,16.50
2019-05-23T22:36:54.858Z,16.50
2019-05-23T22:39:24.499Z,16.40
2019-05-23T22:41:54.320Z,16.40
2019-05-23T22:44:24.029Z,16.40
2019-05-23T22:46:53.793Z,16.40
2019-05-23T22:49:25.319Z,16.30
2019-05-23T22:51:56.381Z,16.30
2019-05-23T22:54:25.955Z,16.30
2019-05-23T22:56:55.615Z,16.20
2019-05-23T22:59:26.293Z,16.20
2019-05-23T23:01:55.936Z,16.20
2019-05-23T23:04:25.746Z,16.10
2019-05-23T23:06:55.291Z,16.10
2019-05-23T23:09:25.155Z,16.00
2019-05-23T23:11:54.720Z,16.00
2019-05-23T23:14:24.345Z,15.90
2019-05-23T23:16:54.261Z,15.90
2019-05-23T23:19:23.750Z,15.80
2019-05-23T23:21:53.209Z,15.70
2019-05-23T23:24:24.265Z,15.70
2019-05-23T23:26:53.705Z,15.60
2019-05-23T23:29:23.195Z,15.50
2019-05-23T23:31:52.795Z,15.40
2019-05-23T23:34:22.243Z,15.40
2019-05-23T23:36:51.736Z,15.30
2019-05-23T23:39:21.633Z,15.30
2019-05-23T23:41:51.091Z,15.20
2019-05-23T23:44:22.160Z,15.10
2019-05-23T23:47:09.675Z,15.10
2019-05-23T23:49:56.600Z,15.10
2019-05-23T23:52:44.255Z,15.00
2019-05-23T23:55:31.661Z,14.90
2019-05-23T23:58:00.590Z,14.90
